Time;durP1;ratioP1;P1;durP2;ratioP2;P2;SDS_P1;SDS_P2;PMS_P1;PMS_P2;Temp;Humidity;BMP_temperature;BMP_pressure;BME280_temperature;BME280_humidity;BME280_pressure;Samples;Min_cycle;Max_cycle;Signal;HPM_P1;HPM_P2
2023/12/22 04:02:02;;;;;;;11.15;2.67;;;6.00;99.90;;;;;;5226660;23;20495;-74
2023/12/22 04:04:28;;;;;;;11.40;2.03;;;6.00;99.90;;;;;;4938557;29;20043;-76
2023/12/22 04:06:54;;;;;;;12.23;2.53;;;6.00;99.90;;;;;;4938516;29;20044;-77
2023/12/22 04:09:19;;;;;;;16.40;2.28;;;6.00;99.90;;;;;;4938533;29;20051;-76
2023/12/22 04:11:45;;;;;;;17.83;3.95;;;6.00;99.90;;;;;;4938298;29;20387;-76
2023/12/22 04:14:11;;;;;;;15.13;2.83;;;6.10;99.90;;;;;;4938346;29;20039;-77
2023/12/22 04:16:38;;;;;;;20.83;2.75;;;6.10;99.90;;;;;;4937155;29;20499;-78
2023/12/22 04:19:03;;;;;;;22.30;2.70;;;6.20;99.90;;;;;;4936736;29;20055;-76
2023/12/22 04:21:29;;;;;;;19.90;3.22;;;6.30;99.90;;;;;;4938203;29;20439;-75
2023/12/22 04:23:55;;;;;;;16.30;2.35;;;6.30;99.90;;;;;;4938444;29;20447;-77
2023/12/22 04:26:20;;;;;;;21.75;2.60;;;6.40;99.90;;;;;;4937778;29;20497;-75
2023/12/22 04:28:46;;;;;;;17.08;2.80;;;6.50;99.90;;;;;;4938051;29;20044;-76
2023/12/22 04:31:11;;;;;;;14.70;2.90;;;6.50;99.90;;;;;;4936477;29;20043;-74
2023/12/22 04:33:37;;;;;;;17.90;2.88;;;6.60;99.90;;;;;;4936400;29;20102;-74
2023/12/22 04:36:03;;;;;;;15.20;2.83;;;6.70;99.90;;;;;;4935823;29;20130;-76
2023/12/22 04:38:29;;;;;;;19.75;2.50;;;6.70;99.90;;;;;;4936371;29;20053;-75
2023/12/22 04:40:54;;;;;;;15.40;2.53;;;6.80;99.90;;;;;;4937734;29;20127;-76
2023/12/22 04:43:20;;;;;;;16.23;2.55;;;6.80;99.90;;;;;;4920672;29;20083;-75
2023/12/22 04:45:45;;;;;;;13.95;2.38;;;6.80;99.90;;;;;;4936146;29;20044;-77
2023/12/22 04:48:11;;;;;;;17.98;3.08;;;6.80;99.90;;;;;;4936182;29;20043;-75
2023/12/22 04:50:36;;;;;;;12.93;2.83;;;6.80;99.90;;;;;;4937490;29;20094;-75
2023/12/22 04:53:02;;;;;;;14.50;2.15;;;6.80;99.90;;;;;;4936792;29;20047;-75
2023/12/22 04:55:28;;;;;;;13.98;2.72;;;6.80;99.90;;;;;;4936009;29;20062;-75
2023/12/22 04:57:53;;;;;;;20.25;2.45;;;6.80;99.90;;;;;;4937436;29;20047;-76
2023/12/22 05:00:19;;;;;;;15.52;2.40;;;6.80;99.90;;;;;;4936050;29;20047;-75
2023/12/22 05:02:45;;;;;;;18.00;2.22;;;6.70;99.90;;;;;;4935894;29;20082;-76
2023/12/22 05:05:11;;;;;;;12.77;2.55;;;6.80;99.90;;;;;;4936959;29;20400;-76
2023/12/22 05:07:37;;;;;;;13.73;3.45;;;6.70;99.90;;;;;;4936070;29;20369;-75
2023/12/22 05:10:03;;;;;;;18.08;3.15;;;6.80;99.90;;;;;;4935848;29;20074;-74
2023/12/22 05:12:29;;;;;;;12.82;2.22;;;6.80;99.90;;;;;;4935877;29;20090;-74
2023/12/22 05:14:54;;;;;;;13.75;2.53;;;6.80;99.90;;;;;;4935936;29;20051;-75
2023/12/22 05:17:20;;;;;;;16.05;2.42;;;6.90;99.90;;;;;;4919871;29;20400;-75
2023/12/22 05:19:46;;;;;;;16.70;2.72;;;6.90;99.90;;;;;;4935901;29;20043;-76
2023/12/22 05:22:11;;;;;;;16.30;2.63;;;7.00;99.90;;;;;;4935694;29;20492;-76
2023/12/22 05:24:38;;;;;;;18.20;2.75;;;7.00;99.90;;;;;;4935736;29;20399;-77
2023/12/22 05:27:04;;;;;;;13.85;2.45;;;7.00;99.90;;;;;;4935453;29;20055;-75
2023/12/22 05:29:29;;;;;;;21.73;2.90;;;7.10;99.90;;;;;;4936929;29;20044;-75
2023/12/22 05:31:55;;;;;;;19.30;2.75;;;7.10;99.90;;;;;;4935329;29;20046;-76
2023/12/22 05:34:20;;;;;;;17.63;2.95;;;7.20;99.90;;;;;;4936537;29;20357;-75
2023/12/22 05:36:46;;;;;;;14.70;2.25;;;7.20;99.90;;;;;;4936428;29;20051;-76
2023/12/22 05:39:12;;;;;;;17.95;2.55;;;7.30;99.90;;;;;;4935335;29;20043;-75
2023/12/22 05:41:37;;;;;;;17.23;3.25;;;7.20;99.90;;;;;;4935166;29;20044;-75
2023/12/22 05:44:07;;;;;;;15.07;2.78;;;7.20;99.90;;;;;;4935210;29;20047;-75
2023/12/22 05:46:37;;;;;;;15.50;2.45;;;7.20;99.90;;;;;;4936411;29;20044;-77
2023/12/22 05:49:03;;;;;;;14.75;2.15;;;7.30;99.90;;;;;;4935445;29;20122;-77
2023/12/22 05:51:29;;;;;;;14.50;2.80;;;7.30;99.90;;;;;;4936888;29;20436;-76
2023/12/22 05:53:54;;;;;;;15.77;2.47;;;7.30;99.90;;;;;;4935159;29;20491;-75
2023/12/22 05:56:21;;;;;;;13.63;3.22;;;7.30;99.90;;;;;;4935347;29;20051;-76
2023/12/22 05:58:47;;;;;;;12.52;2.25;;;7.40;99.90;;;;;;4935124;29;20087;-76
2023/12/22 06:01:18;;;;;;;11.73;2.33;;;7.30;99.90;;;;;;4935112;29;20046;-76
2023/12/22 06:03:44;;;;;;;9.65;1.65;;;7.30;99.90;;;;;;4935009;29;20071;-75
2023/12/22 06:06:10;;;;;;;16.65;1.92;;;7.30;99.90;;;;;;4935151;29;20052;-76
2023/12/22 06:08:37;;;;;;;12.20;2.40;;;7.40;99.90;;;;;;4934829;29;20048;-77
2023/12/22 06:11:03;;;;;;;18.38;2.10;;;7.40;99.90;;;;;;4935936;29;20448;-76
2023/12/22 06:13:28;;;;;;;12.32;1.55;;;7.40;99.90;;;;;;4934835;29;20165;-75
2023/12/22 06:15:54;;;;;;;16.00;2.58;;;7.40;99.90;;;;;;4934704;29;20070;-77
2023/12/22 06:18:20;;;;;;;15.00;2.08;;;7.40;99.90;;;;;;4934737;29;20130;-76
2023/12/22 06:20:45;;;;;;;15.48;2.30;;;7.40;99.90;;;;;;4934939;29;20075;-75
2023/12/22 06:23:11;;;;;;;10.23;1.90;;;7.30;99.90;;;;;;4934964;29;20146;-76
2023/12/22 06:25:36;;;;;;;16.58;1.98;;;7.30;99.90;;;;;;4918702;29;20040;-75
2023/12/22 06:28:03;;;;;;;21.65;3.65;;;7.30;99.90;;;;;;4934607;29;20048;-75
2023/12/22 06:30:28;;;;;;;17.70;2.70;;;7.30;99.90;;;;;;4935961;29;20048;-74
2023/12/22 06:32:54;;;;;;;19.17;2.10;;;7.30;99.90;;;;;;4934582;29;20399;-76
2023/12/22 06:35:23;;;;;;;13.43;2.25;;;7.20;99.90;;;;;;4934542;29;20048;-77
2023/12/22 06:37:49;;;;;;;17.00;2.70;;;7.30;99.90;;;;;;4935978;29;20043;-77
2023/12/22 06:40:15;;;;;;;19.40;3.03;;;7.30;99.90;;;;;;4936128;29;20091;-75
2023/12/22 06:42:41;;;;;;;16.58;2.50;;;7.40;99.90;;;;;;4934761;29;20071;-76
2023/12/22 06:45:07;;;;;;;15.93;2.83;;;7.40;99.90;;;;;;4936041;29;20047;-76
2023/12/22 06:47:33;;;;;;;21.95;2.80;;;7.30;99.90;;;;;;4935781;29;20520;-76
2023/12/22 06:49:59;;;;;;;19.15;2.80;;;7.30;99.90;;;;;;4934547;29;20047;-75
2023/12/22 06:52:24;;;;;;;15.10;3.13;;;7.30;99.90;;;;;;4934640;29;20047;-76
2023/12/22 06:54:50;;;;;;;17.95;2.80;;;7.30;99.90;;;;;;4934393;29;20492;-77
2023/12/22 06:57:16;;;;;;;16.55;3.72;;;7.30;99.90;;;;;;4918775;29;20046;-75
2023/12/22 06:59:42;;;;;;;19.17;2.67;;;7.30;99.90;;;;;;4939290;29;20039;-76
2023/12/22 07:02:08;;;;;;;17.58;3.20;;;7.30;99.90;;;;;;4937941;29;20048;-76
2023/12/22 07:04:34;;;;;;;24.70;2.72;;;7.30;99.90;;;;;;4922450;29;20043;-76
2023/12/22 07:07:00;;;;;;;17.63;3.47;;;7.30;99.90;;;;;;4937933;29;20607;-76
2023/12/22 07:09:28;;;;;;;18.02;3.72;;;7.30;99.90;;;;;;4937907;29;20048;-76
2023/12/22 07:11:54;;;;;;;24.42;3.72;;;7.20;99.90;;;;;;4938052;29;20380;-74
2023/12/22 07:14:20;;;;;;;15.43;3.03;;;7.20;99.90;;;;;;4938463;29;20454;-74
2023/12/22 07:16:45;;;;;;;22.05;2.70;;;7.30;99.90;;;;;;4939321;29;20062;-76
2023/12/22 07:19:12;;;;;;;18.70;3.47;;;7.30;99.90;;;;;;4939556;29;20127;-74
2023/12/22 07:21:39;;;;;;;22.17;2.65;;;7.20;99.90;;;;;;4939120;29;20039;-76
2023/12/22 07:24:05;;;;;;;21.20;3.50;;;7.20;99.90;;;;;;4938912;29;20499;-75
2023/12/22 07:26:31;;;;;;;13.57;2.58;;;7.20;99.90;;;;;;4938574;29;20075;-76
2023/12/22 07:28:56;;;;;;;22.88;3.25;;;7.10;99.90;;;;;;4937520;29;20078;-77
2023/12/22 07:31:22;;;;;;;21.90;2.80;;;7.20;99.90;;;;;;4937418;29;20132;-76
2023/12/22 07:33:48;;;;;;;19.60;3.22;;;7.20;99.90;;;;;;4939189;29;20032;-75
2023/12/22 07:36:14;;;;;;;15.55;2.95;;;7.10;99.90;;;;;;4937395;29;20538;-76
2023/12/22 07:38:39;;;;;;;21.90;2.55;;;7.10;99.90;;;;;;4937407;29;20051;-76
2023/12/22 07:41:05;;;;;;;16.40;2.22;;;7.10;99.90;;;;;;4937296;29;20122;-76
2023/12/22 07:43:31;;;;;;;14.30;2.75;;;7.10;99.90;;;;;;4938448;29;20096;-77
2023/12/22 07:45:57;;;;;;;20.67;3.00;;;7.10;99.90;;;;;;4937182;29;20051;-77
2023/12/22 07:48:23;;;;;;;20.30;3.20;;;7.10;99.90;;;;;;4937390;29;20035;-76
2023/12/22 07:50:49;;;;;;;15.05;2.55;;;7.10;99.90;;;;;;4937356;29;20043;-74
2023/12/22 07:53:15;;;;;;;13.45;2.50;;;7.10;99.90;;;;;;4937123;29;20550;-83
2023/12/22 07:55:41;;;;;;;16.08;2.50;;;7.10;99.90;;;;;;4938306;29;20035;-75
2023/12/22 07:58:07;;;;;;;15.18;1.90;;;7.10;99.90;;;;;;4936091;29;20134;-76
2023/12/22 08:00:33;;;;;;;13.25;1.80;;;7.10;99.90;;;;;;4934867;29;20138;-75
2023/12/22 08:03:00;;;;;;;10.93;1.95;;;7.10;99.90;;;;;;4936632;29;20058;-75
2023/12/22 08:05:26;;;;;;;13.63;2.60;;;7.10;99.90;;;;;;4936725;29;20122;-78
2023/12/22 08:07:51;;;;;;;13.63;2.17;;;7.10;99.90;;;;;;4938320;29;20130;-76
2023/12/22 08:10:17;;;;;;;18.05;2.13;;;7.00;99.90;;;;;;4936568;29;20043;-76
2023/12/22 08:12:43;;;;;;;9.32;1.70;;;7.00;99.90;;;;;;4937219;29;20040;-76
2023/12/22 08:15:12;;;;;;;10.25;1.60;;;7.00;99.90;;;;;;4936610;29;20040;-76
2023/12/22 08:17:45;;;;;;;9.48;2.10;;;6.90;99.90;;;;;;4936904;29;20048;-76
2023/12/22 08:20:11;;;;;;;12.63;1.92;;;6.80;99.90;;;;;;4921054;29;20447;-76
2023/12/22 08:22:36;;;;;;;11.05;2.28;;;6.80;99.90;;;;;;4936612;29;20047;-75
2023/12/22 08:25:02;;;;;;;8.52;1.35;;;6.80;99.90;;;;;;4936568;29;20484;-76
2023/12/22 08:27:28;;;;;;;8.27;1.17;;;6.90;99.90;;;;;;4920633;29;20100;-77
2023/12/22 08:29:53;;;;;;;9.27;1.00;;;6.90;99.90;;;;;;4920494;29;20043;-76
2023/12/22 08:32:19;;;;;;;6.93;1.13;;;6.90;99.90;;;;;;4937379;29;20407;-77
2023/12/22 08:34:45;;;;;;;7.05;1.13;;;7.00;99.90;;;;;;4936465;29;20046;-75
2023/12/22 08:37:11;;;;;;;6.28;1.00;;;7.00;99.90;;;;;;4937740;29;20488;-75
2023/12/22 08:39:36;;;;;;;6.20;1.10;;;7.00;99.90;;;;;;4936314;29;20122;-78
2023/12/22 08:42:02;;;;;;;6.35;1.20;;;7.00;99.90;;;;;;4936287;29;20063;-75
2023/12/22 08:44:28;;;;;;;4.97;1.17;;;7.10;99.90;;;;;;4920141;29;20484;-77
2023/12/22 08:46:53;;;;;;;6.72;1.02;;;7.10;99.90;;;;;;4935895;29;20059;-77
2023/12/22 08:49:19;;;;;;;8.65;1.02;;;7.10;99.90;;;;;;4936024;29;20040;-75
2023/12/22 08:51:45;;;;;;;3.20;1.02;;;7.00;99.90;;;;;;4935975;29;20035;-76
2023/12/22 08:54:10;;;;;;;4.65;1.30;;;7.00;99.90;;;;;;4935774;29;20070;-77
2023/12/22 08:56:36;;;;;;;7.47;1.10;;;7.00;99.90;;;;;;4937230;29;20052;-77
2023/12/22 08:59:01;;;;;;;9.98;1.92;;;7.00;99.90;;;;;;4937103;29;20043;-75
2023/12/22 09:01:27;;;;;;;12.68;2.28;;;7.00;99.90;;;;;;4935443;29;20044;-77
2023/12/22 09:03:53;;;;;;;5.53;0.98;;;7.00;99.90;;;;;;4935934;29;20047;-76
2023/12/22 09:06:21;;;;;;;8.63;1.60;;;6.90;99.90;;;;;;4935630;29;20519;-75
2023/12/22 09:08:48;;;;;;;11.32;1.77;;;7.00;99.90;;;;;;4937107;29;20047;-76
2023/12/22 09:11:16;;;;;;;12.27;1.88;;;6.90;99.90;;;;;;4937129;29;20040;-75
2023/12/22 09:13:42;;;;;;;9.45;2.10;;;6.90;99.90;;;;;;4936831;29;20047;-78
2023/12/22 09:16:09;;;;;;;14.25;2.55;;;6.90;99.90;;;;;;4935517;29;20044;-77
2023/12/22 09:18:35;;;;;;;11.60;2.67;;;6.80;99.90;;;;;;4935482;29;20157;-77
2023/12/22 09:21:02;;;;;;;15.55;2.38;;;6.80;99.90;;;;;;4935094;29;20047;-78
2023/12/22 09:23:29;;;;;;;12.38;1.83;;;6.80;99.90;;;;;;4935455;29;20126;-76
2023/12/22 09:25:54;;;;;;;9.48;1.45;;;6.80;99.90;;;;;;4936790;29;20040;-75
2023/12/22 09:28:20;;;;;;;10.85;1.73;;;6.70;99.90;;;;;;4935351;29;20550;-78
2023/12/22 09:30:46;;;;;;;13.98;2.15;;;6.70;99.90;;;;;;4935477;29;20102;-76
2023/12/22 09:33:12;;;;;;;14.70;2.30;;;6.70;99.90;;;;;;4935655;29;20044;-77
2023/12/22 09:35:41;;;;;;;13.07;1.90;;;6.70;99.90;;;;;;4935216;29;20043;-78
2023/12/22 09:38:08;;;;;;;11.23;1.70;;;6.70;99.90;;;;;;4935233;29;20047;-78
2023/12/22 09:40:36;;;;;;;8.20;1.45;;;6.70;99.90;;;;;;4935074;29;20052;-78
2023/12/22 09:43:02;;;;;;;11.38;1.80;;;6.60;99.90;;;;;;4935414;29;20431;-77
2023/12/22 09:45:31;;;;;;;13.88;2.17;;;6.60;99.90;;;;;;4935278;29;20412;-78
2023/12/22 09:47:59;;;;;;;13.20;1.95;;;6.60;99.90;;;;;;4936516;29;20044;-78
2023/12/22 09:50:28;;;;;;;10.45;1.30;;;6.60;99.90;;;;;;4935124;29;20039;-77
2023/12/22 09:52:54;;;;;;;8.52;1.38;;;6.60;99.90;;;;;;4935246;29;20527;-76
2023/12/22 09:55:24;;;;;;;16.88;2.15;;;6.60;99.90;;;;;;4936121;29;20131;-75
2023/12/22 09:57:52;;;;;;;14.57;2.78;;;6.60;99.90;;;;;;4919137;29;20069;-78
2023/12/22 10:00:18;;;;;;;10.10;1.95;;;6.60;99.90;;;;;;4936249;29;20040;-76
2023/12/22 10:02:45;;;;;;;12.93;2.40;;;6.60;99.90;;;;;;4935113;29;20424;-76
2023/12/22 10:05:15;;;;;;;20.17;2.00;;;6.50;99.90;;;;;;4936309;29;20123;-77
2023/12/22 10:07:45;;;;;;;13.52;2.22;;;6.60;99.90;;;;;;4936261;29;20467;-77
2023/12/22 10:10:12;;;;;;;13.10;2.03;;;6.70;99.90;;;;;;4934752;29;20050;-78
2023/12/22 10:12:44;;;;;;;14.88;2.35;;;6.70;99.90;;;;;;4936118;29;20039;-76
2023/12/22 10:15:12;;;;;;;5.85;1.80;;;6.70;99.90;;;;;;4935913;29;20039;-76
2023/12/22 10:17:38;;;;;;;5.47;1.05;;;6.70;99.90;;;;;;4934159;29;20086;-75
2023/12/22 10:20:05;;;;;;;4.43;1.30;;;6.80;99.90;;;;;;4933701;29;20111;-76
2023/12/22 10:22:30;;;;;;;10.30;2.55;;;6.80;99.90;;;;;;4933903;29;20103;-77
2023/12/22 10:24:56;;;;;;;6.03;1.08;;;6.90;99.90;;;;;;4933630;29;20051;-76
2023/12/22 10:27:22;;;;;;;3.97;1.15;;;6.90;99.90;;;;;;4933860;29;20043;-76
2023/12/22 10:29:55;;;;;;;4.88;0.90;;;6.90;99.90;;;;;;4935280;29;20074;-76
2023/12/22 10:32:21;;;;;;;8.13;1.20;;;6.90;99.90;;;;;;4934527;29;20119;-76
2023/12/22 10:34:48;;;;;;;6.40;1.33;;;7.00;99.90;;;;;;4938799;29;20043;-76
2023/12/22 10:37:13;;;;;;;6.43;0.80;;;7.00;99.90;;;;;;4939738;29;20046;-76
2023/12/22 10:39:39;;;;;;;6.07;1.00;;;7.10;99.90;;;;;;4938710;29;20043;-77
2023/12/22 10:42:05;;;;;;;6.07;1.45;;;7.10;99.90;;;;;;4939939;29;20423;-77
2023/12/22 10:44:31;;;;;;;6.10;1.17;;;7.10;99.90;;;;;;4938407;29;20058;-77
2023/12/22 10:46:57;;;;;;;6.43;1.45;;;7.10;99.90;;;;;;4943833;29;20500;-75
2023/12/22 10:49:24;;;;;;;4.65;1.10;;;7.20;99.90;;;;;;4938262;29;20044;-76
2023/12/22 10:51:50;;;;;;;4.22;0.60;;;7.20;99.90;;;;;;4939381;29;20040;-75
2023/12/22 10:54:17;;;;;;;5.18;0.88;;;7.30;99.90;;;;;;4937959;29;20039;-77
2023/12/22 10:56:43;;;;;;;5.13;1.15;;;7.20;99.90;;;;;;4938026;29;20062;-76
2023/12/22 10:59:09;;;;;;;7.70;1.23;;;7.20;99.90;;;;;;4938292;29;20047;-76
2023/12/22 11:01:38;;;;;;;6.57;1.10;;;7.20;99.90;;;;;;4938071;29;20396;-77
2023/12/22 11:04:13;;;;;;;5.40;1.20;;;7.20;99.90;;;;;;4939429;29;20079;-76
2023/12/22 11:06:42;;;;;;;12.25;1.67;;;7.20;99.90;;;;;;4939214;29;20044;-81
2023/12/22 11:09:09;;;;;;;7.45;1.02;;;7.20;99.90;;;;;;4938121;29;20098;-76
2023/12/22 11:11:39;;;;;;;8.20;1.40;;;7.20;99.90;;;;;;4938892;29;20051;-78
2023/12/22 11:14:06;;;;;;;6.63;1.10;;;7.20;99.90;;;;;;4939548;29;20040;-79
2023/12/22 11:16:33;;;;;;;8.63;1.13;;;7.20;99.90;;;;;;4941560;29;20039;-72
2023/12/22 11:19:00;;;;;;;11.90;1.67;;;7.20;99.90;;;;;;4941632;29;20048;-75
2023/12/22 11:21:26;;;;;;;6.38;1.50;;;7.20;99.90;;;;;;4938619;29;20176;-78
2023/12/22 11:23:53;;;;;;;6.63;1.10;;;7.20;99.90;;;;;;4938102;29;20065;-76
2023/12/22 11:26:20;;;;;;;13.07;1.20;;;7.30;99.90;;;;;;4937595;29;20138;-77
2023/12/22 11:28:48;;;;;;;10.52;1.15;;;7.30;99.90;;;;;;4937601;29;20051;-76
2023/12/22 11:31:15;;;;;;;8.20;1.63;;;7.30;99.90;;;;;;4938997;29;20091;-78
2023/12/22 11:33:45;;;;;;;8.93;1.48;;;7.30;99.90;;;;;;4939039;29;20118;-76
2023/12/22 11:36:12;;;;;;;6.97;1.10;;;7.30;99.90;;;;;;4937503;29;20130;-75
2023/12/22 11:38:43;;;;;;;10.13;1.30;;;7.40;99.90;;;;;;4937335;29;20047;-77
2023/12/22 11:41:30;;;;;;;8.82;1.83;;;7.40;99.90;;;;;;4938857;29;20051;-78
2023/12/22 11:43:58;;;;;;;7.88;1.10;;;7.40;99.90;;;;;;4938344;29;20044;-78
2023/12/22 11:46:24;;;;;;;9.55;1.05;;;7.40;99.90;;;;;;4938314;29;20516;-77
2023/12/22 11:48:51;;;;;;;14.43;1.92;;;7.50;99.90;;;;;;4938651;29;20094;-76
2023/12/22 11:51:17;;;;;;;9.57;1.45;;;7.50;99.90;;;;;;4937220;29;20439;-77
2023/12/22 11:53:44;;;;;;;11.90;2.15;;;7.50;99.90;;;;;;4937111;29;20044;-78
2023/12/22 11:56:10;;;;;;;7.90;1.48;;;7.60;99.90;;;;;;4936984;29;20546;-78
2023/12/22 11:58:43;;;;;;;9.60;1.40;;;7.60;99.90;;;;;;4938405;29;20392;-78
2023/12/22 12:01:10;;;;;;;8.15;1.20;;;7.60;99.90;;;;;;4920888;29;20047;-77
2023/12/22 12:03:58;;;;;;;11.30;1.55;;;7.60;99.90;;;;;;4938486;29;20059;-77
2023/12/22 12:06:28;;;;;;;11.07;1.20;;;7.60;99.90;;;;;;4936744;29;20059;-77
2023/12/22 12:08:55;;;;;;;3.88;0.93;;;7.60;99.90;;;;;;4937080;29;20051;-77
2023/12/22 12:11:22;;;;;;;11.10;1.42;;;7.60;99.90;;;;;;4936975;29;20361;-75
2023/12/22 12:13:48;;;;;;;8.60;0.80;;;7.60;99.90;;;;;;4936650;29;20040;-77
2023/12/22 12:16:18;;;;;;;6.20;0.73;;;7.60;99.90;;;;;;4936959;29;20130;-76
2023/12/22 12:18:45;;;;;;;7.70;1.10;;;7.60;99.90;;;;;;4936560;29;20051;-77
2023/12/22 12:21:11;;;;;;;11.65;0.85;;;7.60;99.90;;;;;;4936563;29;20048;-75
2023/12/22 12:23:38;;;;;;;7.28;1.20;;;7.60;99.90;;;;;;4937703;29;20047;-76
2023/12/22 12:26:08;;;;;;;5.05;0.95;;;7.60;99.90;;;;;;4936341;29;20095;-78
2023/12/22 12:28:36;;;;;;;5.03;0.90;;;7.70;99.90;;;;;;4936448;29;20055;-77
2023/12/22 12:31:08;;;;;;;6.82;0.98;;;7.70;99.90;;;;;;4937870;29;20050;-77
2023/12/22 12:33:37;;;;;;;6.25;1.00;;;7.70;99.90;;;;;;4937800;29;20496;-77
2023/12/22 12:36:06;;;;;;;9.45;1.42;;;7.70;99.90;;;;;;4937827;29;20048;-76
2023/12/22 12:38:55;;;;;;;10.60;2.30;;;7.70;99.90;;;;;;4936749;29;20134;-75
2023/12/22 12:41:31;;;;;;;5.47;1.70;;;7.70;99.90;;;;;;4936127;29;20051;-76
2023/12/22 12:43:58;;;;;;;8.88;1.65;;;7.80;99.90;;;;;;4936416;29;20074;-76
2023/12/22 12:46:35;;;;;;;16.17;1.42;;;7.70;99.90;;;;;;4936089;29;20056;-75
2023/12/22 12:49:06;;;;;;;8.73;1.38;;;7.80;99.90;;;;;;4937243;29;20043;-76
2023/12/22 12:51:42;;;;;;;6.60;1.23;;;7.80;99.90;;;;;;4937274;29;20507;-76
2023/12/22 12:54:10;;;;;;;9.48;1.50;;;7.70;99.90;;;;;;4937528;29;20095;-76
2023/12/22 12:56:44;;;;;;;9.93;1.40;;;7.70;99.90;;;;;;4936641;29;20039;-79
2023/12/22 12:59:15;;;;;;;7.13;1.50;;;7.70;99.90;;;;;;4936110;29;20453;-77
2023/12/22 13:01:43;;;;;;;7.18;1.20;;;7.70;99.90;;;;;;4937035;29;20492;-74
2023/12/22 13:04:09;;;;;;;5.40;1.45;;;7.70;99.90;;;;;;4935819;29;20051;-76
2023/12/22 13:06:35;;;;;;;9.00;1.15;;;7.70;99.90;;;;;;4937426;29;20066;-76
2023/12/22 13:09:01;;;;;;;16.10;2.00;;;7.70;99.90;;;;;;4942152;29;20460;-76
2023/12/22 13:11:30;;;;;;;9.95;1.60;;;7.70;99.90;;;;;;4956278;28;20035;-78
2023/12/22 13:13:57;;;;;;;8.05;1.40;;;7.70;99.90;;;;;;4955216;29;20527;-76
2023/12/22 13:16:29;;;;;;;5.03;1.00;;;7.80;99.90;;;;;;4954654;29;20126;-75
2023/12/22 13:18:58;;;;;;;11.20;1.45;;;7.70;99.90;;;;;;4954689;29;20493;-76
2023/12/22 13:21:24;;;;;;;14.18;1.70;;;7.70;99.90;;;;;;4955855;28;20474;-77
2023/12/22 13:24:13;;;;;;;9.98;1.83;;;7.70;99.90;;;;;;4954467;29;20122;-75
2023/12/22 13:26:39;;;;;;;6.93;1.15;;;7.70;99.90;;;;;;4956488;28;20309;-76
2023/12/22 13:29:06;;;;;;;7.95;1.25;;;7.70;99.90;;;;;;4955719;28;20043;-76
2023/12/22 13:31:32;;;;;;;12.50;2.13;;;7.70;99.90;;;;;;4954749;28;20039;-75
2023/12/22 13:34:02;;;;;;;7.75;1.58;;;7.70;99.90;;;;;;4955072;29;20047;-76
2023/12/22 13:36:27;;;;;;;14.70;1.95;;;7.60;99.90;;;;;;4954962;29;20054;-76
2023/12/22 13:38:54;;;;;;;8.38;1.30;;;7.60;99.90;;;;;;4955814;28;20031;-78
2023/12/22 13:41:19;;;;;;;11.73;1.63;;;7.60;99.90;;;;;;4954310;28;20047;-77
2023/12/22 13:43:45;;;;;;;8.25;1.65;;;7.50;99.90;;;;;;4955631;29;20444;-77
2023/12/22 13:46:15;;;;;;;13.88;1.52;;;7.50;99.90;;;;;;4954893;29;20039;-76
2023/12/22 13:48:40;;;;;;;10.88;2.00;;;7.50;99.90;;;;;;4955063;29;20063;-78
2023/12/22 13:51:06;;;;;;;11.98;1.50;;;7.40;99.90;;;;;;4955689;28;20035;-77
2023/12/22 13:53:32;;;;;;;7.35;1.48;;;7.50;99.90;;;;;;4954190;29;20047;-78
2023/12/22 13:56:01;;;;;;;7.72;1.50;;;7.50;99.90;;;;;;4955218;29;20050;-79
2023/12/22 13:58:27;;;;;;;12.05;2.35;;;7.50;99.90;;;;;;4954434;29;20050;-76
2023/12/22 14:00:53;;;;;;;10.20;1.30;;;7.50;99.90;;;;;;4955372;28;20403;-79
2023/12/22 14:03:22;;;;;;;8.82;1.17;;;7.40;99.90;;;;;;4954363;29;20325;-80
2023/12/22 14:05:53;;;;;;;6.65;1.00;;;7.40;99.90;;;;;;4954065;29;20126;-78
2023/12/22 14:08:18;;;;;;;9.57;1.27;;;7.50;99.90;;;;;;4955500;28;20093;-77
2023/12/22 14:10:50;;;;;;;8.63;1.30;;;7.40;99.90;;;;;;4954113;28;20047;-80
2023/12/22 14:13:16;;;;;;;5.50;0.82;;;7.40;99.90;;;;;;4955953;29;20086;-75
2023/12/22 14:15:45;;;;;;;6.80;1.15;;;7.30;99.90;;;;;;4955598;28;20470;-80
2023/12/22 14:18:11;;;;;;;8.85;1.17;;;7.30;99.90;;;;;;4954356;29;20472;-78
2023/12/22 14:20:37;;;;;;;7.85;1.05;;;7.20;99.90;;;;;;4953976;28;20040;-79
2023/12/22 14:23:03;;;;;;;2.40;0.60;;;7.20;99.90;;;;;;4954399;29;20073;-79
2023/12/22 14:25:30;;;;;;;3.78;0.70;;;7.20;99.90;;;;;;4953933;29;20043;-79
2023/12/22 14:27:57;;;;;;;2.75;0.50;;;7.20;99.90;;;;;;4954347;29;20039;-80
2023/12/22 14:30:23;;;;;;;4.53;0.60;;;7.10;99.90;;;;;;4955505;28;20047;-77
2023/12/22 14:32:49;;;;;;;4.05;0.85;;;7.10;99.90;;;;;;4954540;29;20039;-78
2023/12/22 14:35:14;;;;;;;2.20;0.43;;;7.10;99.90;;;;;;4954007;29;20047;-79
2023/12/22 14:37:40;;;;;;;7.32;1.02;;;7.10;99.90;;;;;;4953871;29;20043;-78
2023/12/22 14:40:06;;;;;;;2.55;0.52;;;7.10;99.90;;;;;;4954177;29;20127;-77
2023/12/22 14:42:32;;;;;;;4.53;0.50;;;7.10;99.90;;;;;;4955308;28;20047;-77
2023/12/22 14:44:58;;;;;;;3.90;1.00;;;7.00;99.90;;;;;;4953859;29;20051;-79
2023/12/22 14:47:23;;;;;;;6.78;0.60;;;7.10;99.90;;;;;;4955262;29;20045;-78
2023/12/22 14:49:49;;;;;;;2.25;0.52;;;7.10;99.90;;;;;;4952378;29;20487;-78
2023/12/22 14:52:15;;;;;;;3.70;0.88;;;7.10;99.90;;;;;;4934791;29;20388;-79
2023/12/22 14:54:40;;;;;;;5.40;0.80;;;7.00;99.90;;;;;;4934903;29;20036;-76
2023/12/22 14:57:06;;;;;;;9.10;1.55;;;7.10;99.90;;;;;;4934792;29;20437;-79
2023/12/22 14:59:32;;;;;;;3.72;0.85;;;7.10;99.90;;;;;;4918785;29;20055;-78
2023/12/22 15:01:58;;;;;;;6.47;0.88;;;7.10;99.90;;;;;;4934492;29;20051;-80
2023/12/22 15:04:23;;;;;;;6.20;1.52;;;7.10;99.90;;;;;;4935621;29;20130;-78
2023/12/22 15:06:49;;;;;;;6.63;0.93;;;7.20;99.90;;;;;;4935595;29;20083;-76
2023/12/22 15:09:15;;;;;;;9.35;1.92;;;7.20;99.90;;;;;;4936615;29;20044;-78
2023/12/22 15:11:45;;;;;;;10.57;1.73;;;7.20;99.90;;;;;;4934832;29;20502;-78
2023/12/22 15:14:11;;;;;;;8.55;1.13;;;7.20;99.90;;;;;;4934575;29;20043;-77
2023/12/22 15:16:41;;;;;;;8.57;1.10;;;7.10;99.90;;;;;;4935224;29;20054;-80
2023/12/22 15:19:07;;;;;;;9.15;1.13;;;7.10;99.90;;;;;;4937797;29;20131;-79
2023/12/22 15:21:33;;;;;;;6.25;1.10;;;7.10;99.90;;;;;;4937743;29;20134;-78
2023/12/22 15:23:58;;;;;;;8.15;1.45;;;7.10;99.90;;;;;;4938025;29;20048;-78
2023/12/22 15:26:27;;;;;;;10.07;1.10;;;7.10;99.90;;;;;;4937809;29;20048;-79
2023/12/22 15:28:53;;;;;;;6.88;1.10;;;7.20;99.90;;;;;;4939101;29;20417;-76
2023/12/22 15:31:19;;;;;;;7.68;1.38;;;7.10;99.90;;;;;;4937763;29;20044;-79
2023/12/22 15:33:45;;;;;;;11.73;1.45;;;7.10;99.90;;;;;;4939221;29;20114;-77
2023/12/22 15:36:15;;;;;;;13.98;1.90;;;7.20;99.90;;;;;;4939463;29;20043;-76
2023/12/22 15:38:41;;;;;;;6.18;1.30;;;7.30;99.90;;;;;;4937813;29;20432;-77
2023/12/22 15:41:07;;;;;;;7.53;1.20;;;7.30;99.90;;;;;;4937479;29;20047;-80
2023/12/22 15:43:33;;;;;;;5.88;1.00;;;7.40;99.90;;;;;;4937579;29;20048;-78
2023/12/22 15:46:03;;;;;;;6.45;1.13;;;7.40;99.90;;;;;;4937259;29;20054;-79
2023/12/22 15:48:28;;;;;;;6.03;1.40;;;7.40;99.90;;;;;;4939109;29;20404;-78
2023/12/22 15:50:54;;;;;;;5.85;0.80;;;7.50;99.90;;;;;;4937622;29;20075;-79
2023/12/22 15:53:19;;;;;;;4.40;1.10;;;7.60;99.90;;;;;;4937252;29;20095;-77
2023/12/22 15:55:45;;;;;;;10.27;1.27;;;7.60;99.90;;;;;;4938436;29;20047;-77
2023/12/22 15:58:11;;;;;;;9.25;2.58;;;7.60;99.90;;;;;;4938688;29;20377;-78
2023/12/22 16:00:36;;;;;;;9.73;1.40;;;7.70;99.90;;;;;;4936866;29;20050;-78
2023/12/22 16:03:03;;;;;;;10.73;1.90;;;7.70;99.90;;;;;;4921676;29;20060;-79
2023/12/22 16:05:29;;;;;;;6.97;1.13;;;7.70;99.90;;;;;;4937367;29;20051;-79
2023/12/22 16:07:58;;;;;;;8.70;1.40;;;7.70;99.90;;;;;;4936979;29;20040;-78
2023/12/22 16:10:25;;;;;;;11.25;1.02;;;7.70;99.90;;;;;;4937785;29;20094;-77
2023/12/22 16:12:51;;;;;;;5.63;1.00;;;7.80;99.90;;;;;;4938434;29;20493;-79
2023/12/22 16:15:17;;;;;;;7.25;1.05;;;7.80;99.90;;;;;;4937090;29;20139;-78
2023/12/22 16:17:43;;;;;;;8.15;1.00;;;7.80;99.90;;;;;;4936880;29;20071;-79
2023/12/22 16:20:11;;;;;;;5.60;0.88;;;7.80;99.90;;;;;;4936754;29;20052;-77
2023/12/22 16:22:37;;;;;;;6.32;0.95;;;7.80;99.90;;;;;;4938107;29;20118;-78
2023/12/22 16:25:03;;;;;;;3.20;0.77;;;7.90;99.90;;;;;;4938053;29;20080;-77
2023/12/22 16:27:31;;;;;;;4.65;1.10;;;7.90;99.90;;;;;;4936890;29;20110;-78
2023/12/22 16:29:57;;;;;;;8.13;0.75;;;7.90;99.90;;;;;;4936769;29;20039;-76
2023/12/22 16:32:22;;;;;;;5.82;1.20;;;7.90;99.90;;;;;;4936124;29;20039;-78
2023/12/22 16:34:48;;;;;;;5.43;1.27;;;8.00;99.90;;;;;;4936362;29;20047;-78
2023/12/22 16:37:14;;;;;;;7.22;1.33;;;8.00;99.90;;;;;;4937819;29;20058;-77
2023/12/22 16:39:52;;;;;;;6.95;1.42;;;8.00;99.90;;;;;;4936231;29;20076;-78
2023/12/22 16:42:20;;;;;;;3.33;0.95;;;8.00;99.90;;;;;;4937755;29;20126;-77
2023/12/22 16:44:47;;;;;;;6.22;1.20;;;8.00;99.90;;;;;;4936615;29;20440;-78
2023/12/22 16:47:13;;;;;;;8.02;1.30;;;8.10;99.90;;;;;;4936136;29;20043;-76
2023/12/22 16:49:38;;;;;;;5.65;0.77;;;8.10;99.90;;;;;;4936183;29;20503;-76
2023/12/22 16:52:05;;;;;;;12.05;1.33;;;8.10;99.90;;;;;;4937371;29;20408;-77